Time;durP1;ratioP1;P1;durP2;ratioP2;P2;SDS_P1;SDS_P2;PMS_P1;PMS_P2;Temp;Humidity;BMP_temperature;BMP_pressure;BME280_temperature;BME280_humidity;BME280_pressure;Samples;Min_cycle;Max_cycle;Signal;HPM_P1;HPM_P2
2022/11/23 00:00:58;;;;;;;47.67;22.05;;;9.90;99.90;;;;;;6277502;22;20030;-79
2022/11/23 00:03:24;;;;;;;41.10;18.35;;;9.90;99.90;;;;;;6277736;22;19995;-77
2022/11/23 00:05:50;;;;;;;42.92;19.58;;;9.90;99.90;;;;;;6277206;22;20055;-78
2022/11/23 00:08:16;;;;;;;40.75;16.75;;;9.90;99.90;;;;;;6277421;22;20003;-78
2022/11/23 00:10:42;;;;;;;50.58;20.90;;;9.90;99.90;;;;;;6277391;22;20290;-78
2022/11/23 00:13:07;;;;;;;36.65;16.50;;;9.90;99.90;;;;;;6277570;22;19992;-77
2022/11/23 00:15:34;;;;;;;33.90;13.23;;;9.90;99.90;;;;;;6277318;22;20075;-77
2022/11/23 00:18:00;;;;;;;41.15;17.13;;;9.80;99.90;;;;;;6277758;22;20010;-78
2022/11/23 00:20:25;;;;;;;65.22;27.20;;;9.80;99.90;;;;;;6301580;22;20016;-77
2022/11/23 00:22:51;;;;;;;68.00;30.67;;;9.80;99.90;;;;;;6277566;22;19996;-78
2022/11/23 00:25:17;;;;;;;65.78;28.05;;;9.70;99.90;;;;;;6302128;22;20401;-78
2022/11/23 00:27:43;;;;;;;62.10;28.58;;;9.70;99.90;;;;;;6276978;22;20000;-78
2022/11/23 00:30:09;;;;;;;59.58;25.42;;;9.70;99.90;;;;;;6301754;22;20007;-77
2022/11/23 00:32:35;;;;;;;42.65;19.50;;;9.70;99.90;;;;;;6276744;22;20360;-78
2022/11/23 00:35:01;;;;;;;22.80;12.60;;;9.70;99.90;;;;;;6277483;22;20041;-78
2022/11/23 00:37:26;;;;;;;26.67;12.88;;;9.70;99.90;;;;;;6277635;22;20014;-78
2022/11/23 00:39:52;;;;;;;27.35;10.38;;;9.70;99.90;;;;;;6277358;22;20048;-80
2022/11/23 00:42:18;;;;;;;21.80;9.60;;;9.70;99.90;;;;;;6277610;22;20058;-77
2022/11/23 00:44:43;;;;;;;34.33;14.60;;;9.70;99.90;;;;;;6275727;22;20003;-78
2022/11/23 00:47:09;;;;;;;39.35;17.60;;;9.60;99.90;;;;;;6277193;22;20000;-77
2022/11/23 00:49:35;;;;;;;27.10;11.75;;;9.60;99.90;;;;;;6277502;22;19996;-78
2022/11/23 00:52:01;;;;;;;27.42;12.63;;;9.50;99.90;;;;;;6277110;22;20064;-78
2022/11/23 00:54:26;;;;;;;26.58;11.70;;;9.50;99.90;;;;;;6277301;22;19999;-77
2022/11/23 00:56:52;;;;;;;34.63;15.60;;;9.50;99.90;;;;;;6277496;22;19995;-77
2022/11/23 00:59:18;;;;;;;27.65;12.38;;;9.50;99.90;;;;;;6277058;22;20002;-76
2022/11/23 01:01:44;;;;;;;36.03;16.15;;;9.50;99.90;;;;;;6277200;22;20030;-77
2022/11/23 01:04:09;;;;;;;28.92;13.05;;;9.50;99.90;;;;;;6277153;22;19995;-77
2022/11/23 01:06:39;;;;;;;26.50;9.63;;;9.50;99.90;;;;;;6276937;22;19992;-79
2022/11/23 01:09:17;;;;;;;30.55;10.48;;;9.50;99.90;;;;;;6276926;22;20035;-77
2022/11/23 01:11:44;;;;;;;31.70;14.52;;;9.50;99.90;;;;;;6276979;22;19995;-77
2022/11/23 01:14:10;;;;;;;34.53;14.43;;;9.50;99.90;;;;;;6277101;22;19992;-77
2022/11/23 01:16:38;;;;;;;23.13;10.18;;;9.50;99.90;;;;;;6275332;22;20023;-77
2022/11/23 01:19:06;;;;;;;20.42;9.13;;;9.50;99.90;;;;;;6275735;22;20000;-76
2022/11/23 01:21:33;;;;;;;23.80;10.32;;;9.50;99.90;;;;;;6277173;22;20396;-77
2022/11/23 01:23:59;;;;;;;19.95;10.27;;;9.40;99.90;;;;;;6276841;22;19999;-78
2022/11/23 01:26:25;;;;;;;27.20;11.60;;;9.40;99.90;;;;;;6277197;22;19996;-77
2022/11/23 01:28:51;;;;;;;21.00;10.68;;;9.40;99.90;;;;;;6275110;22;19999;-77
2022/11/23 01:31:21;;;;;;;19.88;9.40;;;9.40;99.90;;;;;;6276104;22;20320;-77
2022/11/23 01:33:55;;;;;;;24.15;10.98;;;9.40;99.90;;;;;;6276965;22;20054;-76
2022/11/23 01:36:24;;;;;;;32.75;13.13;;;9.30;99.90;;;;;;6276747;22;19998;-76
2022/11/23 01:38:50;;;;;;;26.05;10.77;;;9.30;99.90;;;;;;6277054;22;19995;-77
2022/11/23 01:41:22;;;;;;;29.45;13.82;;;9.30;99.90;;;;;;6300609;22;19999;-78
2022/11/23 01:43:49;;;;;;;30.05;13.10;;;9.30;99.90;;;;;;6276826;22;19995;-78
2022/11/23 01:46:14;;;;;;;39.47;15.07;;;9.30;99.90;;;;;;6275275;22;20004;-78
2022/11/23 01:48:51;;;;;;;37.40;15.85;;;9.30;99.90;;;;;;6278402;22;20070;-78
2022/11/23 01:51:52;;;;;;;35.95;12.35;;;9.30;99.90;;;;;;6278668;22;19991;-76
2022/11/23 01:54:23;;;;;;;22.70;10.85;;;9.20;99.90;;;;;;6184718;23;20291;-77
2022/11/23 01:56:59;;;;;;;32.70;13.60;;;9.20;99.90;;;;;;6184766;23;20354;-77
2022/11/23 01:59:27;;;;;;;21.60;8.60;;;9.10;99.90;;;;;;6185041;23;20297;-78
2022/11/23 02:01:53;;;;;;;48.20;17.98;;;9.10;99.90;;;;;;6184631;23;20000;-79
2022/11/23 02:04:23;;;;;;;44.55;18.13;;;9.20;99.90;;;;;;6184433;23;20032;-79
2022/11/23 02:06:51;;;;;;;26.30;10.70;;;9.10;99.90;;;;;;6184700;23;20401;-78
2022/11/23 02:09:17;;;;;;;30.77;12.73;;;9.10;99.90;;;;;;6184752;23;19997;-78
2022/11/23 02:11:43;;;;;;;36.05;14.95;;;9.10;99.90;;;;;;6184472;23;20069;-77
2022/11/23 02:14:09;;;;;;;36.00;15.73;;;9.10;99.90;;;;;;6184704;23;20029;-76
2022/11/23 02:16:37;;;;;;;34.95;16.42;;;9.00;99.90;;;;;;6184411;23;20008;-80
2022/11/23 02:19:15;;;;;;;37.70;16.70;;;8.90;99.90;;;;;;6184250;23;20012;-79
2022/11/23 02:21:42;;;;;;;32.45;14.80;;;8.90;99.90;;;;;;6184815;23;20075;-78
2022/11/23 02:24:11;;;;;;;34.30;16.98;;;8.80;99.90;;;;;;6184726;23;20445;-77
2022/11/23 02:26:37;;;;;;;26.73;13.77;;;8.80;99.90;;;;;;6184170;23;20010;-77
2022/11/23 02:29:21;;;;;;;31.58;14.63;;;8.70;99.90;;;;;;6184324;23;20016;-79
2022/11/23 02:31:46;;;;;;;38.67;17.20;;;8.70;99.90;;;;;;6273972;22;20015;-77
2022/11/23 02:34:12;;;;;;;28.95;14.85;;;8.70;99.90;;;;;;6278322;22;19991;-77
2022/11/23 02:36:48;;;;;;;39.22;17.15;;;8.70;99.90;;;;;;6278263;22;20019;-76
2022/11/23 02:39:22;;;;;;;32.83;14.85;;;8.70;99.90;;;;;;6278183;22;20397;-77
2022/11/23 02:41:51;;;;;;;27.23;13.25;;;8.70;99.90;;;;;;6278826;22;19994;-77
2022/11/23 02:44:38;;;;;;;45.45;21.30;;;8.60;99.90;;;;;;6278188;22;20309;-77
2022/11/23 02:47:06;;;;;;;58.30;26.60;;;8.60;99.90;;;;;;6276662;22;20286;-78
2022/11/23 02:49:32;;;;;;;36.55;16.17;;;8.70;99.90;;;;;;6276913;22;20413;-77
2022/11/23 02:51:58;;;;;;;47.60;20.45;;;8.70;99.90;;;;;;6278405;22;19999;-78
2022/11/23 02:54:23;;;;;;;92.60;37.30;;;8.70;99.90;;;;;;6277995;22;20352;-77
2022/11/23 02:56:49;;;;;;;75.30;33.13;;;8.70;99.90;;;;;;6278129;22;19992;-76
2022/11/23 02:59:15;;;;;;;67.68;30.92;;;8.70;99.90;;;;;;6278459;22;20063;-77
2022/11/23 03:01:41;;;;;;;74.90;33.20;;;8.70;99.90;;;;;;6278007;22;19998;-76
2022/11/23 03:04:07;;;;;;;103.65;35.95;;;8.70;99.90;;;;;;6277919;22;19996;-77
2022/11/23 03:06:33;;;;;;;117.32;44.00;;;8.80;99.90;;;;;;6276586;22;19999;-77
2022/11/23 03:08:59;;;;;;;143.25;50.55;;;8.70;99.90;;;;;;6302548;22;20061;-79
2022/11/23 03:11:24;;;;;;;165.85;56.10;;;8.80;99.90;;;;;;6277308;22;20003;-78
2022/11/23 03:13:50;;;;;;;146.15;44.33;;;8.90;99.90;;;;;;6277715;22;20313;-77
2022/11/23 03:16:16;;;;;;;137.25;45.42;;;8.90;99.90;;;;;;6278034;22;20027;-79
2022/11/23 03:18:42;;;;;;;87.28;30.75;;;8.90;99.90;;;;;;6277978;22;19992;-78
2022/11/23 03:21:08;;;;;;;54.72;20.92;;;8.90;99.90;;;;;;6277578;22;19999;-77
2022/11/23 03:23:34;;;;;;;72.60;24.13;;;9.00;99.90;;;;;;6278079;22;20003;-77
2022/11/23 03:26:01;;;;;;;95.45;30.70;;;9.00;99.90;;;;;;6277786;22;19994;-78
2022/11/23 03:28:27;;;;;;;78.93;28.67;;;9.10;99.90;;;;;;6277629;22;20003;-77
2022/11/23 03:30:53;;;;;;;62.17;25.90;;;9.20;99.90;;;;;;6276231;22;20078;-77
2022/11/23 03:33:19;;;;;;;31.75;15.82;;;9.40;99.90;;;;;;6278018;22;20004;-77
2022/11/23 03:35:45;;;;;;;9.38;5.45;;;9.40;99.90;;;;;;6277303;22;20297;-77
2022/11/23 03:38:12;;;;;;;11.63;5.75;;;9.50;99.90;;;;;;6277407;22;20000;-79
2022/11/23 03:40:37;;;;;;;21.95;10.88;;;9.70;99.90;;;;;;6277607;22;20474;-77
2022/11/23 03:43:04;;;;;;;27.50;10.57;;;9.70;99.90;;;;;;6277451;22;19995;-77
2022/11/23 03:45:29;;;;;;;49.75;19.08;;;9.70;99.90;;;;;;6277443;22;20015;-76
2022/11/23 03:47:55;;;;;;;42.72;16.48;;;9.70;99.90;;;;;;6277276;22;20033;-77
2022/11/23 03:50:21;;;;;;;59.63;24.05;;;9.70;99.90;;;;;;6277146;22;20111;-77
2022/11/23 03:52:49;;;;;;;28.98;12.10;;;9.70;99.90;;;;;;6277451;22;19992;-77
2022/11/23 03:55:15;;;;;;;30.75;12.45;;;9.70;99.90;;;;;;6277459;22;20023;-78
2022/11/23 03:57:41;;;;;;;22.67;9.48;;;9.80;99.90;;;;;;6276721;22;19992;-77
2022/11/23 04:00:08;;;;;;;26.17;11.18;;;9.80;99.90;;;;;;6277014;22;20007;-78
2022/11/23 04:02:34;;;;;;;26.58;9.57;;;9.80;99.90;;;;;;6275809;22;20000;-78
2022/11/23 04:05:00;;;;;;;20.35;7.93;;;9.80;99.90;;;;;;6301778;22;20046;-77
2022/11/23 04:07:26;;;;;;;23.05;8.85;;;9.90;99.90;;;;;;6277333;22;20075;-77
2022/11/23 04:09:52;;;;;;;51.95;18.50;;;9.90;99.90;;;;;;6276878;22;19995;-79
2022/11/23 04:12:18;;;;;;;41.22;14.88;;;9.90;99.90;;;;;;6277181;22;20030;-78
2022/11/23 04:14:44;;;;;;;46.40;19.10;;;9.90;99.90;;;;;;6276979;22;20351;-78
2022/11/23 04:17:09;;;;;;;25.77;11.32;;;9.90;99.90;;;;;;6277208;22;20282;-80
2022/11/23 04:19:35;;;;;;;38.88;16.65;;;9.90;99.90;;;;;;6277353;22;20309;-79
2022/11/23 04:22:01;;;;;;;21.63;9.27;;;9.90;99.90;;;;;;6277610;22;20049;-77
2022/11/23 04:24:27;;;;;;;24.30;10.43;;;10.00;99.90;;;;;;6276679;22;20304;-79
2022/11/23 04:26:52;;;;;;;40.95;15.40;;;10.00;99.90;;;;;;6277306;22;20061;-77
2022/11/23 04:29:18;;;;;;;17.52;6.82;;;9.90;99.90;;;;;;6276956;22;19998;-77
2022/11/23 04:31:44;;;;;;;12.70;6.65;;;10.00;99.90;;;;;;6276767;22;20008;-78
2022/11/23 04:34:10;;;;;;;15.02;6.85;;;10.00;99.90;;;;;;6276958;22;20016;-78
2022/11/23 04:36:36;;;;;;;11.77;3.80;;;10.00;99.90;;;;;;6277178;22;20042;-78
2022/11/23 04:39:03;;;;;;;23.77;8.50;;;10.00;99.90;;;;;;6301311;22;20307;-79
2022/11/23 04:41:28;;;;;;;34.78;15.55;;;10.00;99.90;;;;;;6277064;22;20062;-76
2022/11/23 04:43:54;;;;;;;19.20;9.25;;;9.90;99.90;;;;;;6277537;22;20018;-78
2022/11/23 04:46:20;;;;;;;17.98;8.63;;;9.90;99.90;;;;;;6277299;22;19992;-77
2022/11/23 04:48:46;;;;;;;19.02;7.75;;;9.90;99.90;;;;;;6275701;22;20577;-77
2022/11/23 04:51:13;;;;;;;16.25;7.45;;;9.80;99.90;;;;;;6277201;22;19992;-77
2022/11/23 04:53:39;;;;;;;17.17;7.60;;;9.80;99.90;;;;;;6277304;22;20437;-78
2022/11/23 04:56:05;;;;;;;12.15;5.53;;;9.70;99.90;;;;;;6277340;22;20045;-77
2022/11/23 04:58:31;;;;;;;10.35;5.10;;;9.70;99.90;;;;;;6277017;22;20004;-79
2022/11/23 05:00:58;;;;;;;17.25;6.07;;;9.60;99.90;;;;;;6277041;22;19996;-77
2022/11/23 05:03:24;;;;;;;18.02;8.63;;;9.60;99.90;;;;;;6276953;22;20003;-78
2022/11/23 05:05:50;;;;;;;22.88;10.90;;;9.50;99.90;;;;;;6276686;22;20023;-77
2022/11/23 05:08:15;;;;;;;56.97;21.83;;;9.50;99.90;;;;;;6276709;22;20007;-78
2022/11/23 05:10:42;;;;;;;48.70;21.45;;;9.40;99.90;;;;;;6276652;22;20458;-77
2022/11/23 05:13:08;;;;;;;72.32;29.65;;;9.40;99.90;;;;;;6275200;22;19996;-78
2022/11/23 05:15:33;;;;;;;59.47;23.50;;;9.40;99.90;;;;;;6300935;22;20022;-78
2022/11/23 05:18:01;;;;;;;35.97;18.83;;;9.40;99.90;;;;;;6301219;22;20007;-78
2022/11/23 05:20:27;;;;;;;45.70;21.23;;;9.40;99.90;;;;;;6276597;22;19988;-80
2022/11/23 05:22:52;;;;;;;11.63;6.60;;;9.40;99.90;;;;;;6278824;22;19992;-78
2022/11/23 05:25:18;;;;;;;21.75;8.80;;;9.40;99.90;;;;;;6278555;22;20431;-78
2022/11/23 05:27:44;;;;;;;25.63;10.27;;;9.40;99.90;;;;;;6278693;22;19996;-78
2022/11/23 05:30:10;;;;;;;13.95;6.63;;;9.30;99.90;;;;;;6279458;22;20000;-77
2022/11/23 05:32:36;;;;;;;13.23;6.25;;;9.30;99.90;;;;;;6279047;22;20419;-77
2022/11/23 05:35:02;;;;;;;13.20;6.13;;;9.30;99.90;;;;;;6278083;22;19999;-78
2022/11/23 05:37:28;;;;;;;22.33;10.23;;;9.20;99.90;;;;;;6277535;22;20007;-82
2022/11/23 05:39:53;;;;;;;27.55;13.65;;;9.20;99.90;;;;;;6303516;22;20405;-78
2022/11/23 05:42:19;;;;;;;14.48;7.07;;;9.20;99.90;;;;;;6279158;22;19992;-79
2022/11/23 05:44:46;;;;;;;9.75;4.53;;;9.20;99.90;;;;;;6303169;22;19995;-77
2022/11/23 05:47:13;;;;;;;15.13;5.95;;;9.20;99.90;;;;;;6279088;22;20068;-78
2022/11/23 05:49:42;;;;;;;10.18;4.50;;;9.30;99.90;;;;;;6278840;22;19991;-79
2022/11/23 05:52:08;;;;;;;4.78;2.42;;;9.30;99.90;;;;;;6278966;22;19992;-78
2022/11/23 05:54:34;;;;;;;16.48;5.93;;;9.50;99.90;;;;;;6278074;22;20063;-77
2022/11/23 05:56:59;;;;;;;8.52;3.92;;;9.50;99.90;;;;;;6279038;22;20030;-77
2022/11/23 05:59:25;;;;;;;16.50;4.88;;;9.40;99.90;;;;;;6279037;22;19995;-77
2022/11/23 06:01:51;;;;;;;13.65;6.05;;;9.30;99.90;;;;;;6278850;22;19996;-76
2022/11/23 06:04:16;;;;;;;18.70;7.10;;;9.10;99.90;;;;;;6279098;22;20060;-76
2022/11/23 06:06:42;;;;;;;26.13;11.70;;;9.00;99.90;;;;;;6278964;22;19996;-77
2022/11/23 06:09:08;;;;;;;38.72;20.90;;;8.90;99.90;;;;;;6278723;22;20007;-76
2022/11/23 06:11:34;;;;;;;20.23;9.55;;;8.80;99.90;;;;;;6279142;22;20478;-76
2022/11/23 06:14:00;;;;;;;22.05;8.95;;;8.70;99.90;;;;;;6278419;22;19995;-76
2022/11/23 06:16:26;;;;;;;32.20;14.85;;;8.70;99.90;;;;;;6278644;22;19991;-75
2022/11/23 06:18:52;;;;;;;29.35;15.90;;;8.60;99.90;;;;;;6279170;22;20053;-77
2022/11/23 06:21:18;;;;;;;30.27;14.80;;;8.60;99.90;;;;;;6278795;22;20297;-78
2022/11/23 06:23:46;;;;;;;27.95;15.93;;;8.50;99.90;;;;;;6278706;22;20023;-78
2022/11/23 06:26:12;;;;;;;32.60;17.67;;;8.40;99.90;;;;;;6278901;22;20002;-78
2022/11/23 06:28:38;;;;;;;39.83;19.35;;;8.40;99.90;;;;;;6278635;22;20023;-78
2022/11/23 06:31:05;;;;;;;35.65;17.58;;;8.40;99.90;;;;;;6278219;22;20041;-78
2022/11/23 06:33:32;;;;;;;35.33;19.60;;;8.30;99.90;;;;;;6277038;22;20023;-77
2022/11/23 06:36:00;;;;;;;49.05;22.63;;;8.30;99.90;;;;;;6278351;22;20002;-77
2022/11/23 06:38:26;;;;;;;44.95;23.45;;;8.20;99.90;;;;;;6278264;22;20025;-77
2022/11/23 06:40:52;;;;;;;45.90;27.15;;;8.30;99.90;;;;;;6278480;22;20396;-77
2022/11/23 06:43:18;;;;;;;50.00;28.98;;;8.20;99.90;;;;;;6278759;22;19999;-75
2022/11/23 06:45:44;;;;;;;53.75;30.75;;;8.20;99.90;;;;;;6278471;22;20357;-75
2022/11/23 06:48:10;;;;;;;32.67;18.65;;;8.20;99.90;;;;;;6278141;22;20038;-74
2022/11/23 06:50:35;;;;;;;33.10;18.52;;;8.20;99.90;;;;;;6278588;22;20000;-76
2022/11/23 06:53:01;;;;;;;38.40;21.35;;;8.20;99.90;;;;;;6278669;22;20019;-75
2022/11/23 06:55:27;;;;;;;35.22;21.65;;;8.20;99.90;;;;;;6278515;22;19996;-76
2022/11/23 06:57:55;;;;;;;39.50;22.00;;;8.20;99.90;;;;;;6277974;22;20022;-75
2022/11/23 07:00:20;;;;;;;42.25;24.30;;;8.20;99.90;;;;;;6278197;22;20478;-76
2022/11/23 07:02:54;;;;;;;44.00;24.70;;;8.20;99.90;;;;;;6278522;22;20006;-76
2022/11/23 07:05:20;;;;;;;52.85;29.48;;;8.20;99.90;;;;;;6278376;22;20405;-75
2022/11/23 07:07:46;;;;;;;43.22;23.80;;;8.20;99.90;;;;;;6278184;22;20004;-74
2022/11/23 07:10:12;;;;;;;51.22;30.05;;;8.20;99.90;;;;;;6278294;22;20033;-76
2022/11/23 07:12:38;;;;;;;48.25;26.48;;;8.20;99.90;;;;;;6278002;22;20074;-76
2022/11/23 07:15:04;;;;;;;44.70;26.58;;;8.10;99.90;;;;;;6277331;22;20026;-76
2022/11/23 07:17:30;;;;;;;65.93;35.83;;;8.10;99.90;;;;;;6278111;22;19998;-75
2022/11/23 07:19:56;;;;;;;53.47;31.20;;;8.00;99.90;;;;;;6276268;22;20083;-77
2022/11/23 07:22:21;;;;;;;59.65;28.63;;;8.00;99.90;;;;;;6302381;22;20023;-76
2022/11/23 07:24:47;;;;;;;52.30;27.90;;;8.00;99.90;;;;;;6278194;22;19991;-75
2022/11/23 07:27:15;;;;;;;65.63;38.25;;;8.00;99.90;;;;;;6277472;22;20000;-76
2022/11/23 07:29:40;;;;;;;61.35;34.38;;;8.00;99.90;;;;;;6277764;22;20065;-75
2022/11/23 07:32:07;;;;;;;44.97;24.80;;;7.90;99.90;;;;;;6278013;22;20476;-75
2022/11/23 07:34:33;;;;;;;51.67;28.77;;;7.90;99.90;;;;;;6277691;22;19999;-76
2022/11/23 07:36:59;;;;;;;58.72;32.30;;;7.90;99.90;;;;;;6277508;22;19996;-75
2022/11/23 07:39:24;;;;;;;67.53;37.03;;;7.90;99.90;;;;;;6278171;22;19991;-77
2022/11/23 07:41:50;;;;;;;69.18;38.85;;;7.90;99.90;;;;;;6302001;22;20282;-76
2022/11/23 07:44:16;;;;;;;70.65;38.78;;;8.00;99.90;;;;;;6277301;22;20471;-77
2022/11/23 07:46:42;;;;;;;52.60;28.98;;;8.00;99.90;;;;;;6275982;22;20025;-76
2022/11/23 07:49:07;;;;;;;65.68;35.70;;;7.90;99.90;;;;;;6277610;22;20010;-75
2022/11/23 07:51:33;;;;;;;43.55;24.98;;;7.90;99.90;;;;;;6278410;22;20003;-76
2022/11/23 07:53:59;;;;;;;46.33;26.73;;;7.90;99.90;;;;;;6277348;22;19999;-78
2022/11/23 07:56:25;;;;;;;46.55;28.13;;;7.90;99.90;;;;;;6278013;22;20348;-76
2022/11/23 07:58:51;;;;;;;50.38;29.25;;;7.90;99.90;;;;;;6277498;22;20412;-75
2022/11/23 08:01:18;;;;;;;38.92;23.98;;;7.90;99.90;;;;;;6277274;22;20077;-76
2022/11/23 08:03:47;;;;;;;44.35;26.30;;;8.00;99.90;;;;;;6277652;22;19995;-77
2022/11/23 08:06:14;;;;;;;46.80;28.88;;;8.00;99.90;;;;;;6276617;22;19998;-75
2022/11/23 08:08:41;;;;;;;51.28;30.45;;;8.00;99.90;;;;;;6274933;22;20011;-75
2022/11/23 08:11:08;;;;;;;66.60;37.55;;;8.00;99.90;;;;;;6275369;22;19996;-75
2022/11/23 08:13:34;;;;;;;72.40;39.15;;;8.10;99.90;;;;;;6275311;22;19995;-75
2022/11/23 08:16:24;;;;;;;59.05;32.53;;;8.10;99.90;;;;;;5088618;27;20378;-77
2022/11/23 08:18:50;;;;;;;60.38;35.25;;;8.10;99.90;;;;;;5089278;28;20035;-77
2022/11/23 08:21:16;;;;;;;47.33;29.45;;;8.10;99.90;;;;;;5090002;28;20077;-77
2022/11/23 08:23:42;;;;;;;38.63;22.70;;;8.10;99.90;;;;;;5090794;28;20016;-77
2022/11/23 08:26:07;;;;;;;31.33;20.15;;;8.20;99.90;;;;;;5090847;28;20020;-78
2022/11/23 08:28:33;;;;;;;46.13;26.20;;;8.20;99.90;;;;;;5091063;28;20016;-79
2022/11/23 08:31:05;;;;;;;56.35;30.80;;;8.20;99.90;;;;;;5091279;28;20412;-78
2022/11/23 08:33:31;;;;;;;63.17;35.25;;;8.20;99.90;;;;;;5090861;28;20023;-76
2022/11/23 08:36:01;;;;;;;50.13;26.58;;;8.20;99.90;;;;;;5090846;28;20367;-77
2022/11/23 08:38:27;;;;;;;47.88;27.88;;;8.20;99.90;;;;;;5091235;28;20052;-77
2022/11/23 08:40:58;;;;;;;36.90;23.85;;;8.20;99.90;;;;;;5090768;28;20058;-76
2022/11/23 08:43:24;;;;;;;44.53;28.20;;;8.20;99.90;;;;;;5090980;28;20069;-77
2022/11/23 08:45:56;;;;;;;32.67;21.33;;;8.30;99.90;;;;;;5090998;28;20020;-77
2022/11/23 08:48:22;;;;;;;30.52;19.73;;;8.30;99.90;;;;;;5090616;28;20028;-76
2022/11/23 08:50:48;;;;;;;30.45;19.67;;;8.30;99.90;;;;;;5090610;28;20025;-77
2022/11/23 08:53:14;;;;;;;22.30;14.80;;;8.40;99.90;;;;;;5090828;28;20012;-77
2022/11/23 08:55:40;;;;;;;25.45;16.27;;;8.40;99.90;;;;;;5090301;28;20028;-77
2022/11/23 08:58:07;;;;;;;27.58;16.85;;;8.60;99.90;;;;;;5089243;28;20036;-77
2022/11/23 09:00:33;;;;;;;22.45;13.90;;;8.60;99.90;;;;;;5090409;28;20463;-78
2022/11/23 09:02:59;;;;;;;22.08;13.65;;;8.70;99.90;;;;;;5090626;28;20032;-77
2022/11/23 09:05:26;;;;;;;18.13;11.38;;;8.80;99.90;;;;;;5090391;28;20070;-77
2022/11/23 09:07:51;;;;;;;31.88;15.98;;;8.90;99.90;;;;;;5090183;28;20028;-76
2022/11/23 09:10:17;;;;;;;52.10;21.40;;;9.00;99.90;;;;;;5090535;28;20022;-79
2022/11/23 09:12:43;;;;;;;76.57;28.85;;;9.00;99.90;;;;;;5089959;28;20055;-75
2022/11/23 09:15:09;;;;;;;61.53;23.50;;;9.10;99.90;;;;;;5089801;28;20135;-77
2022/11/23 09:17:35;;;;;;;35.17;15.93;;;9.20;99.90;;;;;;5090152;28;20020;-76
2022/11/23 09:20:01;;;;;;;22.30;12.93;;;9.10;99.90;;;;;;5090329;28;20358;-76
2022/11/23 09:22:27;;;;;;;30.75;15.50;;;9.20;99.90;;;;;;5090147;28;20016;-76
2022/11/23 09:24:53;;;;;;;15.43;8.13;;;9.20;99.90;;;;;;5089978;28;20107;-77
2022/11/23 09:27:19;;;;;;;15.35;8.32;;;9.20;99.90;;;;;;5077308;28;20520;-77
2022/11/23 09:29:45;;;;;;;25.40;11.27;;;9.20;99.90;;;;;;5076541;28;20029;-77
2022/11/23 09:32:10;;;;;;;31.55;11.77;;;9.20;99.90;;;;;;5076094;28;20081;-76
2022/11/23 09:34:36;;;;;;;36.13;12.80;;;9.30;99.90;;;;;;5076848;28;20024;-77
2022/11/23 09:37:02;;;;;;;23.00;10.88;;;9.30;99.90;;;;;;5076112;28;20016;-77
2022/11/23 09:39:28;;;;;;;36.03;15.65;;;9.40;99.90;;;;;;5076553;28;20447;-77
2022/11/23 09:42:15;;;;;;;27.00;14.10;;;9.50;99.90;;;;;;5075107;28;20024;-76
2022/11/23 09:44:40;;;;;;;24.33;12.20;;;9.60;99.90;;;;;;5076629;28;20028;-78
2022/11/23 09:47:21;;;;;;;30.05;16.02;;;9.60;99.90;;;;;;5076056;28;20021;-79
2022/11/23 09:50:02;;;;;;;26.35;14.32;;;9.60;99.90;;;;;;5076235;28;20352;-78
2022/11/23 09:52:29;;;;;;;25.85;14.18;;;9.60;99.90;;;;;;5076326;28;20021;-77
2022/11/23 09:54:59;;;;;;;25.42;13.73;;;9.70;99.90;;;;;;5076132;28;20028;-77
2022/11/23 09:57:28;;;;;;;31.85;15.60;;;9.80;99.90;;;;;;5074772;28;20040;-78
2022/11/23 10:00:00;;;;;;;23.95;12.52;;;9.80;99.90;;;;;;5075527;28;20430;-77
2022/11/23 10:02:28;;;;;;;21.33;11.55;;;9.80;99.90;;;;;;5076112;28;20049;-79
2022/11/23 10:04:56;;;;;;;21.45;14.30;;;9.70;99.90;;;;;;5075930;28;20027;-77
2022/11/23 10:07:49;;;;;;;30.83;14.73;;;9.80;99.90;;;;;;5075739;28;20048;-78
2022/11/23 10:10:25;;;;;;;15.93;8.77;;;9.80;99.90;;;;;;5074916;28;20031;-77
2022/11/23 10:12:50;;;;;;;18.25;9.52;;;9.90;99.90;;;;;;5076088;28;20043;-78
2022/11/23 10:15:32;;;;;;;19.40;9.80;;;9.80;99.90;;;;;;5075438;28;20455;-79
2022/11/23 10:18:12;;;;;;;22.05;11.95;;;9.80;99.90;;;;;;5075931;28;20024;-77
2022/11/23 10:20:46;;;;;;;13.32;7.60;;;9.80;99.90;;;;;;5075568;28;20028;-78
2022/11/23 10:23:21;;;;;;;10.13;5.75;;;9.80;99.90;;;;;;5074308;28;20020;-79
2022/11/23 10:25:49;;;;;;;7.97;5.32;;;9.70;99.90;;;;;;5075605;28;20107;-77
2022/11/23 10:28:18;;;;;;;16.02;8.30;;;9.40;99.90;;;;;;5075439;28;20040;-78
2022/11/23 10:31:00;;;;;;;22.67;14.43;;;9.30;99.90;;;;;;5075245;28;20465;-76
2022/11/23 10:33:55;;;;;;;25.23;13.73;;;9.30;99.90;;;;;;5075150;28;20021;-77
2022/11/23 10:36:20;;;;;;;18.42;10.48;;;9.20;99.90;;;;;;5069930;28;20115;-78
2022/11/23 10:38:52;;;;;;;22.33;11.85;;;9.10;99.90;;;;;;5072943;28;20111;-78
2022/11/23 10:41:18;;;;;;;9.13;5.18;;;9.00;99.90;;;;;;5075291;28;20098;-77
2022/11/23 10:43:51;;;;;;;21.98;11.02;;;8.80;99.90;;;;;;5074986;28;20063;-79
2022/11/23 10:46:26;;;;;;;35.97;14.98;;;9.00;99.90;;;;;;5075223;28;20032;-77
2022/11/23 10:48:53;;;;;;;42.08;22.67;;;9.00;99.90;;;;;;5074871;28;20143;-77
2022/11/23 10:51:38;;;;;;;31.67;16.40;;;9.00;99.90;;;;;;5075300;28;20024;-77
2022/11/23 10:54:16;;;;;;;27.33;14.40;;;8.90;99.90;;;;;;5074560;28;20031;-78
2022/11/23 10:56:50;;;;;;;27.70;13.93;;;8.90;99.90;;;;;;5075038;28;20029;-76
2022/11/23 10:59:26;;;;;;;24.63;11.90;;;9.00;99.90;;;;;;5074605;28;20387;-78
2022/11/23 11:02:15;;;;;;;22.13;9.20;;;9.00;99.90;;;;;;5074527;28;20099;-78
2022/11/23 11:04:42;;;;;;;13.65;6.90;;;9.00;99.90;;;;;;5074323;28;20375;-78
2022/11/23 11:07:18;;;;;;;15.88;6.75;;;8.90;99.90;;;;;;5074615;28;20020;-78
2022/11/23 11:10:01;;;;;;;14.13;8.05;;;9.00;99.90;;;;;;5074702;28;20029;-77
2022/11/23 11:12:31;;;;;;;11.32;5.40;;;9.00;99.90;;;;;;5075049;28;20016;-79
2022/11/23 11:15:01;;;;;;;17.42;7.88;;;9.00;99.90;;;;;;5074422;28;20513;-78
2022/11/23 11:17:34;;;;;;;15.48;6.38;;;9.10;99.90;;;;;;5074338;28;20588;-77
2022/11/23 11:20:21;;;;;;;17.58;7.88;;;8.90;99.90;;;;;;5074467;28;20028;-77
2022/11/23 11:22:46;;;;;;;14.18;5.50;;;9.00;99.90;;;;;;5074665;28;20112;-77
2022/11/23 11:25:31;;;;;;;17.60;7.88;;;9.00;99.90;;;;;;5074168;28;20063;-77
2022/11/23 11:27:58;;;;;;;15.13;7.20;;;8.90;99.90;;;;;;5074360;28;20028;-78
2022/11/23 11:30:29;;;;;;;21.35;8.32;;;8.90;99.90;;;;;;5074177;28;20093;-78
2022/11/23 11:32:55;;;;;;;17.50;9.50;;;8.90;99.90;;;;;;5074174;28;20525;-77
2022/11/23 11:35:29;;;;;;;18.30;9.48;;;8.80;99.90;;;;;;5073998;28;20072;-77
2022/11/23 11:38:02;;;;;;;30.88;13.82;;;8.90;99.90;;;;;;5073761;28;20360;-78
2022/11/23 11:40:48;;;;;;;17.23;7.53;;;9.00;99.90;;;;;;5074238;28;20028;-77
2022/11/23 11:43:26;;;;;;;19.88;10.50;;;9.00;99.90;;;;;;5073781;28;20150;-78
2022/11/23 11:45:58;;;;;;;21.35;9.77;;;9.00;99.90;;;;;;5073862;28;20021;-77
2022/11/23 11:48:57;;;;;;;18.30;9.80;;;8.90;99.90;;;;;;5073941;28;20032;-78
2022/11/23 11:51:28;;;;;;;15.80;8.27;;;8.90;99.90;;;;;;5039055;28;20053;-78
2022/11/23 11:54:15;;;;;;;18.95;9.10;;;8.90;99.90;;;;;;5074309;28;20012;-79
2022/11/23 11:56:48;;;;;;;17.77;8.95;;;8.90;99.90;;;;;;5072834;28;20021;-79
2022/11/23 11:59:43;;;;;;;19.60;9.88;;;8.90;99.90;;;;;;5072600;28;20024;-76
2022/11/23 12:02:23;;;;;;;15.45;8.63;;;8.80;99.90;;;;;;5074218;28;20070;-79
2022/11/23 12:04:54;;;;;;;27.45;13.27;;;8.70;99.90;;;;;;5074004;28;20029;-76
2022/11/23 12:08:11;;;;;;;34.75;16.70;;;8.80;99.90;;;;;;5073709;28;20066;-77
2022/11/23 12:10:50;;;;;;;25.88;13.95;;;8.80;99.90;;;;;;5031464;28;20129;-77
2022/11/23 12:13:22;;;;;;;20.23;9.85;;;8.80;99.90;;;;;;5031371;28;20502;-77
2022/11/23 12:16:06;;;;;;;;;;;8.80;99.90;;;;;;5031529;28;20216;-77
2022/11/23 12:19:03;;;;;;;13.63;8.13;;;8.60;99.90;;;;;;5031727;28;20032;-77
2022/11/23 12:21:44;;;;;;;15.43;8.38;;;8.50;99.90;;;;;;5031349;28;20079;-77
2022/11/23 12:24:27;;;;;;;13.07;7.57;;;8.30;99.90;;;;;;5031305;28;20029;-78
2022/11/23 12:26:56;;;;;;;14.15;7.35;;;8.10;99.90;;;;;;5014686;28;20044;-76
2022/11/23 12:29:38;;;;;;;21.35;10.20;;;8.00;99.90;;;;;;5031389;28;20448;-77
2022/11/23 12:32:32;;;;;;;18.88;9.27;;;8.00;99.90;;;;;;5031289;28;20480;-76
2022/11/23 12:35:19;;;;;;;44.67;17.90;;;8.00;99.90;;;;;;5031120;28;20076;-76
2022/11/23 12:38:09;;;;;;;33.50;14.70;;;8.00;99.90;;;;;;5031058;28;20489;-77
2022/11/23 12:40:47;;;;;;;12.70;6.50;;;8.10;99.90;;;;;;5031109;28;20527;-75
2022/11/23 12:43:25;;;;;;;16.50;9.07;;;8.00;99.90;;;;;;5033194;28;20049;-75
2022/11/23 12:45:58;;;;;;;18.25;9.23;;;8.00;99.90;;;;;;5073472;28;20021;-76
2022/11/23 12:48:36;;;;;;;28.92;13.43;;;7.90;99.90;;;;;;5073270;28;20155;-77
2022/11/23 12:51:11;;;;;;;22.63;11.15;;;7.90;99.90;;;;;;5072207;28;20363;-77